Time;durP1;ratioP1;P1;durP2;ratioP2;P2;SDS_P1;SDS_P2;PMS_P1;PMS_P2;Temp;Humidity;BMP_temperature;BMP_pressure;BME280_temperature;BME280_humidity;BME280_pressure;Samples;Min_cycle;Max_cycle;Signal;HPM_P1;HPM_P2
2022/06/05 00:01:22;;;;;;;22.08;14.27;;;12.20;1.00;;;;;;10334715;28;20225;-81
2022/06/05 00:06:57;;;;;;;20.60;13.32;;;12.20;1.00;;;;;;10365403;28;20284;-83
2022/06/05 00:12:23;;;;;;;17.38;12.95;;;12.20;1.00;;;;;;10369782;28;20194;-82
2022/06/05 00:17:45;;;;;;;18.08;12.25;;;12.10;1.00;;;;;;10337933;28;20206;-82
2022/06/05 00:23:07;;;;;;;16.92;12.30;;;12.00;1.00;;;;;;10369593;28;20384;-87
2022/06/05 00:28:38;;;;;;;19.13;11.52;;;11.90;1.00;;;;;;10363188;28;20209;-91
2022/06/05 00:34:00;;;;;;;19.30;12.53;;;11.80;1.00;;;;;;10346989;28;20280;-92
2022/06/05 00:39:39;;;;;;;14.13;11.83;;;11.80;1.00;;;;;;10349740;28;20280;-85
2022/06/05 00:45:07;;;;;;;18.05;13.43;;;11.70;1.00;;;;;;10336385;28;20233;-91
2022/06/05 00:50:31;;;;;;;21.75;13.75;;;11.70;1.00;;;;;;10349629;28;20385;-80
2022/06/05 00:55:53;;;;;;;19.07;13.23;;;11.70;1.00;;;;;;10364793;28;20217;-79
2022/06/05 01:01:14;;;;;;;17.40;13.27;;;11.60;1.00;;;;;;10351790;28;20230;-83
2022/06/05 01:06:36;;;;;;;17.97;12.60;;;11.60;1.00;;;;;;10320143;28;20241;-80
2022/06/05 01:12:23;;;;;;;17.20;11.75;;;11.60;1.00;;;;;;10324186;28;20200;-87
2022/06/05 01:17:59;;;;;;;22.35;14.27;;;11.50;1.00;;;;;;10345904;28;20209;-93
2022/06/05 01:23:27;;;;;;;22.30;13.80;;;11.30;10.80;;;;;;10331685;28;20305;-93
2022/06/05 01:29:22;;;;;;;19.17;13.60;;;11.20;19.70;;;;;;10346930;28;20292;-94
2022/06/05 01:34:48;;;;;;;17.40;12.63;;;11.20;13.50;;;;;;10336218;28;20256;-83
2022/06/05 01:40:27;;;;;;;17.40;11.97;;;11.20;13.40;;;;;;10335298;28;20194;-81
2022/06/05 01:45:51;;;;;;;16.07;11.47;;;11.30;15.40;;;;;;10359810;28;20229;-93
2022/06/05 01:51:25;;;;;;;17.83;11.90;;;11.20;7.90;;;;;;10346032;28;20227;-94
2022/06/05 01:56:52;;;;;;;16.20;11.13;;;11.30;1.00;;;;;;10345268;28;20280;-93
2022/06/05 02:02:19;;;;;;;18.87;11.60;;;11.20;12.40;;;;;;10347234;28;20228;-93
2022/06/05 02:07:54;;;;;;;16.40;9.97;;;11.10;20.90;;;;;;10360316;28;20227;-93
2022/06/05 02:13:16;;;;;;;11.77;10.00;;;11.10;26.10;;;;;;10319831;28;20197;-91
2022/06/05 02:18:38;;;;;;;13.27;9.67;;;11.00;28.10;;;;;;10342729;28;20376;-91
2022/06/05 02:24:01;;;;;;;13.67;10.37;;;11.00;33.40;;;;;;10344567;28;20231;-90
2022/06/05 02:29:24;;;;;;;14.43;10.33;;;11.00;33.50;;;;;;10356417;28;20197;-90
2022/06/05 02:34:54;;;;;;;13.10;10.00;;;11.00;21.40;;;;;;10333554;28;20200;-80
2022/06/05 02:40:54;;;;;;;16.23;10.93;;;11.00;9.10;;;;;;10361026;28;20542;-81
2022/06/05 02:46:34;;;;;;;11.63;9.73;;;11.10;20.80;;;;;;10355668;28;20233;-94
2022/06/05 02:52:01;;;;;;;11.70;9.13;;;11.10;16.60;;;;;;10358942;28;20219;-90
2022/06/05 02:57:22;;;;;;;16.50;10.80;;;11.10;16.90;;;;;;10361684;28;20197;-94
2022/06/05 03:08:23;;;;;;;17.90;12.40;;;10.90;1.00;;;;;;10407488;28;20200;-93
2022/06/05 03:13:45;;;;;;;15.17;11.20;;;10.80;11.30;;;;;;10388658;28;20216;-88
2022/06/05 03:19:06;;;;;;;15.90;11.83;;;10.70;11.70;;;;;;10419462;28;20238;-91
2022/06/05 03:24:28;;;;;;;13.37;11.07;;;10.80;12.60;;;;;;10374731;28;20233;-86
2022/06/05 03:29:50;;;;;;;13.87;10.13;;;10.80;13.30;;;;;;10377133;28;20199;-81
2022/06/05 03:35:12;;;;;;;12.23;9.80;;;11.00;20.80;;;;;;10395615;28;20281;-81
2022/06/05 03:40:34;;;;;;;12.17;9.30;;;11.10;17.50;;;;;;10382130;28;20573;-95
2022/06/05 03:46:07;;;;;;;10.93;8.10;;;11.20;20.30;;;;;;10397718;28;20234;-81
2022/06/05 03:51:29;;;;;;;12.90;8.60;;;11.40;13.60;;;;;;10384756;28;20212;-80
2022/06/05 03:56:50;;;;;;;8.40;7.27;;;11.50;11.30;;;;;;10402865;28;20490;-80
2022/06/05 04:02:11;;;;;;;8.53;7.40;;;11.60;1.80;;;;;;10386603;28;20200;-81
2022/06/05 04:07:33;;;;;;;11.02;7.70;;;11.70;1.00;;;;;;10388669;28;20307;-79
2022/06/05 04:19:53;;;;;;;10.20;8.10;;;11.80;1.00;;;;;;10599721;27;20541;-94
2022/06/05 04:25:15;;;;;;;11.60;8.67;;;11.80;1.00;;;;;;10577150;28;20237;-93
2022/06/05 04:30:38;;;;;;;12.07;8.40;;;11.80;1.20;;;;;;10502959;28;20198;-92
2022/06/05 04:35:59;;;;;;;8.30;7.33;;;11.80;3.50;;;;;;10503497;28;20263;-95
2022/06/05 04:41:21;;;;;;;8.77;6.27;;;11.90;1.00;;;;;;10555324;28;20196;-92
2022/06/05 04:46:43;;;;;;;7.13;5.20;;;12.10;1.00;;;;;;10544514;28;20203;-92
2022/06/05 04:52:04;;;;;;;5.80;5.20;;;12.20;1.00;;;;;;10542032;28;20197;-92
2022/06/05 04:57:25;;;;;;;6.17;5.07;;;12.30;1.00;;;;;;10527845;28;20464;-95
2022/06/05 05:02:46;;;;;;;6.60;5.33;;;12.50;1.00;;;;;;10501281;28;20255;-93
2022/06/05 05:08:08;;;;;;;5.53;4.50;;;12.60;1.00;;;;;;10559873;28;20211;-95
2022/06/05 05:13:30;;;;;;;6.28;4.95;;;12.80;1.00;;;;;;10547127;28;20206;-93
2022/06/05 05:18:51;;;;;;;8.63;5.32;;;13.00;1.00;;;;;;10526742;28;20239;-90
2022/06/05 05:24:12;;;;;;;16.40;9.43;;;13.20;1.00;;;;;;10538288;28;20482;-95
2022/06/05 05:29:33;;;;;;;13.35;8.65;;;13.40;1.00;;;;;;10509859;28;20203;-93
2022/06/05 05:34:54;;;;;;;15.00;9.82;;;13.60;1.00;;;;;;10531163;28;20193;-94
2022/06/05 05:45:56;;;;;;;13.20;8.77;;;14.00;1.00;;;;;;10494521;28;20233;-86
2022/06/05 05:51:18;;;;;;;13.35;8.38;;;14.10;1.00;;;;;;10485991;28;20220;-84
2022/06/05 05:56:40;;;;;;;7.93;5.75;;;14.30;1.00;;;;;;10493042;28;20221;-92
2022/06/05 06:02:02;;;;;;;5.50;4.40;;;14.60;1.00;;;;;;10527268;28;20383;-94
2022/06/05 06:07:23;;;;;;;5.15;3.80;;;14.80;13.90;;;;;;10544372;28;20394;-80
2022/06/05 06:12:45;;;;;;;5.45;4.15;;;15.00;12.30;;;;;;10552116;28;20209;-93
2022/06/05 06:18:06;;;;;;;3.83;3.10;;;15.20;24.60;;;;;;10493096;28;20230;-93
2022/06/05 06:23:27;;;;;;;3.53;2.30;;;15.50;13.80;;;;;;10477934;28;20197;-80
2022/06/05 06:28:49;;;;;;;6.55;3.90;;;15.80;2.20;;;;;;10546610;28;20178;-83
2022/06/05 06:34:10;;;;;;;4.32;3.25;;;16.00;6.40;;;;;;10564781;28;20190;-86
2022/06/05 06:39:33;;;;;;;4.47;2.60;;;16.50;1.00;;;;;;10499270;28;20229;-93
2022/06/05 06:44:56;;;;;;;3.05;2.17;;;17.30;1.00;;;;;;10511279;28;20378;-89
2022/06/05 06:50:18;;;;;;;4.45;2.35;;;17.90;1.00;;;;;;10534982;28;20377;-79
2022/06/05 06:55:39;;;;;;;6.93;3.50;;;18.80;1.00;;;;;;10490133;28;20242;-94
2022/06/05 07:01:04;;;;;;;3.88;3.13;;;19.50;1.00;;;;;;10509484;28;20203;-83
2022/06/05 07:06:26;;;;;;;4.53;3.00;;;20.10;1.00;;;;;;10522989;28;20191;-80
2022/06/05 07:11:47;;;;;;;3.47;2.60;;;20.30;1.00;;;;;;10482333;28;20259;-94
2022/06/05 07:17:08;;;;;;;3.70;2.08;;;20.90;1.00;;;;;;10516046;28;20227;-87
2022/06/05 07:22:31;;;;;;;3.20;2.05;;;21.40;1.00;;;;;;10494202;28;20221;-92
2022/06/05 07:27:52;;;;;;;2.53;2.15;;;21.40;99.90;;;;;;10519406;28;20237;-81
2022/06/05 07:33:14;;;;;;;2.30;2.05;;;21.80;1.00;;;;;;10495804;28;20195;-93
2022/06/05 07:38:35;;;;;;;1.83;1.45;;;22.30;1.00;;;;;;10505529;28;20215;-83
2022/06/05 07:43:58;;;;;;;5.07;1.63;;;22.70;99.90;;;;;;10510986;28;20187;-89
2022/06/05 07:49:20;;;;;;;1.98;1.55;;;22.90;1.00;;;;;;10516380;28;20198;-93
2022/06/05 07:54:41;;;;;;;1.80;1.33;;;22.90;99.90;;;;;;10512768;28;20195;-90
2022/06/05 08:00:05;;;;;;;2.40;1.77;;;23.30;99.90;;;;;;10495946;28;20526;-94
2022/06/05 08:05:26;;;;;;;2.08;1.45;;;23.80;1.00;;;;;;10497402;28;20214;-85
2022/06/05 08:10:48;;;;;;;2.05;1.85;;;24.30;1.00;;;;;;10482303;28;20214;-84
2022/06/05 08:16:11;;;;;;;3.05;1.85;;;24.70;1.00;;;;;;10489145;28;20572;-83
2022/06/05 08:21:33;;;;;;;1.67;1.55;;;24.70;1.00;;;;;;10533574;28;20191;-89
2022/06/05 08:26:54;;;;;;;1.40;1.30;;;24.90;1.00;;;;;;10546588;28;20194;-92
2022/06/05 08:32:17;;;;;;;3.70;1.48;;;25.10;1.00;;;;;;10491019;28;20226;-92
2022/06/05 08:43:35;;;;;;;1.23;1.13;;;25.40;89.90;;;;;;10517682;28;20195;-80
2022/06/05 08:49:11;;;;;;;1.10;1.00;;;25.70;1.00;;;;;;10491384;28;20251;-81
2022/06/05 08:55:01;;;;;;;2.83;1.30;;;25.70;1.00;;;;;;10453758;23;20232;-81
2022/06/05 09:00:57;;;;;;;1.02;0.90;;;26.20;1.00;;;;;;10389286;28;20240;-80
2022/06/05 09:06:39;;;;;;;1.77;1.08;;;26.50;99.90;;;;;;10438213;28;20203;-85
2022/06/05 09:12:27;;;;;;;1.17;1.08;;;26.70;1.00;;;;;;10456205;28;20227;-86
2022/06/05 09:17:57;;;;;;;1.75;1.60;;;26.90;1.00;;;;;;10437657;28;20538;-94
2022/06/05 09:23:26;;;;;;;3.17;1.40;;;27.20;99.90;;;;;;10444174;28;20224;-87
2022/06/05 09:29:17;;;;;;;1.08;0.82;;;26.90;99.90;;;;;;10441158;28;20197;-87
2022/06/05 09:35:30;;;;;;;1.15;1.02;;;27.40;99.90;;;;;;10450478;28;20196;-88
2022/06/05 09:41:38;;;;;;;2.35;1.13;;;27.60;99.90;;;;;;10468755;28;20188;-89
2022/06/05 09:47:14;;;;;;;11.98;8.77;;;27.70;99.90;;;;;;10463915;28;20211;-90
2022/06/05 09:52:35;;;;;;;2.92;1.20;;;27.70;99.90;;;;;;10435985;28;20225;-88
2022/06/05 09:58:27;;;;;;;1.88;1.00;;;27.80;97.80;;;;;;10468825;28;20250;-94
2022/06/05 10:03:50;;;;;;;1.05;1.00;;;27.80;99.90;;;;;;10458640;28;20231;-96
2022/06/05 10:09:24;;;;;;;0.90;0.90;;;27.90;1.00;;;;;;10448771;28;20223;-92
2022/06/05 10:14:50;;;;;;;3.95;1.63;;;28.10;1.00;;;;;;10463333;28;20200;-95
2022/06/05 10:20:17;;;;;;;2.33;0.73;;;28.30;1.00;;;;;;10445810;28;20507;-93
2022/06/05 10:26:07;;;;;;;3.22;1.05;;;28.10;1.00;;;;;;10434197;28;20203;-92
2022/06/05 10:31:32;;;;;;;3.78;0.95;;;28.40;1.00;;;;;;10447991;28;20220;-92
2022/06/05 10:37:10;;;;;;;1.95;1.00;;;28.40;1.00;;;;;;10435754;28;20279;-83
2022/06/05 10:42:39;;;;;;;3.58;1.10;;;;;;;;;;10437254;28;20196;-87
2022/06/05 10:48:28;;;;;;;1.40;1.20;;;29.20;1.00;;;;;;10442603;28;20258;-86
2022/06/05 10:54:14;;;;;;;2.05;1.27;;;28.80;1.00;;;;;;10431440;28;20236;-88
2022/06/05 10:59:39;;;;;;;2.03;1.02;;;28.50;1.00;;;;;;10444803;28;20228;-84
2022/06/05 11:05:30;;;;;;;2.33;1.27;;;28.70;1.00;;;;;;10459690;28;20202;-82
2022/06/05 11:17:16;;;;;;;5.07;1.10;;;29.10;1.00;;;;;;10504984;28;20298;-94
2022/06/05 11:23:00;;;;;;;1.23;1.00;;;29.10;1.00;;;;;;10447604;28;20199;-83
2022/06/05 11:28:59;;;;;;;1.10;0.98;;;28.80;1.00;;;;;;10421679;28;20211;-92
2022/06/05 11:34:29;;;;;;;1.70;0.98;;;28.80;1.00;;;;;;10408706;28;20201;-91
2022/06/05 11:40:09;;;;;;;3.58;0.95;;;28.80;1.00;;;;;;10429289;28;20224;-94
2022/06/05 11:45:44;;;;;;;2.60;0.98;;;28.70;99.90;;;;;;10420959;28;20216;-85
2022/06/05 11:51:33;;;;;;;3.28;1.30;;;29.10;99.90;;;;;;10441742;28;20388;-96
2022/06/05 11:57:28;;;;;;;1.52;1.00;;;29.20;99.90;;;;;;10446810;28;20226;-85
2022/06/05 12:02:54;;;;;;;1.02;0.75;;;29.20;99.90;;;;;;10442874;28;20203;-90
2022/06/05 12:08:21;;;;;;;2.35;1.00;;;28.90;99.90;;;;;;10443289;28;20235;-89
2022/06/05 12:14:08;;;;;;;1.65;1.10;;;28.90;99.90;;;;;;10437798;28;20263;-96
2022/06/05 12:19:54;;;;;;;3.25;1.48;;;28.70;99.90;;;;;;10415523;28;20229;-89
2022/06/05 12:25:25;;;;;;;4.82;1.10;;;28.90;99.90;;;;;;10411881;28;20201;-85
2022/06/05 12:30:57;;;;;;;1.58;1.20;;;28.70;99.90;;;;;;10424709;28;20193;-92
2022/06/05 12:36:26;;;;;;;1.17;0.88;;;28.30;99.90;;;;;;10409781;28;20209;-87
2022/06/05 12:42:05;;;;;;;1.60;1.33;;;28.20;99.90;;;;;;10438760;28;20227;-84
2022/06/05 12:47:50;;;;;;;1.10;1.00;;;28.10;99.90;;;;;;10413636;28;20197;-95
2022/06/05 12:53:35;;;;;;;0.80;0.80;;;27.90;99.90;;;;;;10429190;28;20275;-83
2022/06/05 12:59:18;;;;;;;1.00;0.90;;;27.90;99.90;;;;;;10415289;28;20229;-91
2022/06/05 13:21:15;;;;;;;3.00;0.90;;;27.30;23.70;;;;;;10459622;28;20232;-85
2022/06/05 13:26:53;;;;;;;2.33;0.80;;;27.20;29.30;;;;;;10474375;28;20196;-94
2022/06/05 13:32:19;;;;;;;3.35;0.90;;;27.00;16.10;;;;;;10472765;28;20205;-85
2022/06/05 13:38:20;;;;;;;1.00;0.90;;;27.10;20.90;;;;;;10436240;28;20223;-94
2022/06/05 13:43:48;;;;;;;0.77;0.77;;;26.90;3.60;;;;;;10459698;28;20260;-83
2022/06/05 13:49:33;;;;;;;2.42;0.88;;;27.00;1.00;;;;;;10453779;28;20197;-81
2022/06/05 13:55:05;;;;;;;0.93;0.70;;;26.80;1.00;;;;;;10415647;28;20302;-88
2022/06/05 14:00:48;;;;;;;2.50;0.82;;;26.40;1.00;;;;;;10463245;28;20228;-87
2022/06/05 14:06:34;;;;;;;2.90;0.90;;;26.20;1.00;;;;;;10431812;28;20250;-90
2022/06/05 14:11:56;;;;;;;1.40;0.90;;;25.80;1.00;;;;;;10454785;28;20200;-85
2022/06/05 14:17:43;;;;;;;2.38;0.80;;;25.70;1.00;;;;;;10434822;28;20242;-95
2022/06/05 14:23:07;;;;;;;2.03;1.10;;;25.50;1.00;;;;;;10423354;28;20200;-87
2022/06/05 14:28:54;;;;;;;2.17;1.00;;;25.40;4.90;;;;;;10435036;28;20200;-96
2022/06/05 14:34:20;;;;;;;1.30;0.85;;;25.40;1.00;;;;;;10452197;28;20196;-88
2022/06/05 14:39:45;;;;;;;1.15;1.00;;;25.40;1.00;;;;;;10437210;28;20224;-94
2022/06/05 14:45:13;;;;;;;2.00;0.98;;;25.30;1.00;;;;;;10448160;28;20199;-92
2022/06/05 14:50:48;;;;;;;0.88;0.75;;;25.20;1.00;;;;;;10451297;28;20244;-91
2022/06/05 15:02:48;;;;;;;0.80;0.80;;;24.70;1.00;;;;;;10432803;28;20211;-86
2022/06/05 15:08:28;;;;;;;0.70;0.70;;;24.50;1.00;;;;;;10434671;28;20197;-89
2022/06/05 15:14:21;;;;;;;0.98;0.88;;;24.30;1.00;;;;;;10433622;28;20227;-91
2022/06/05 15:19:45;;;;;;;1.17;0.75;;;24.10;1.00;;;;;;10443460;28;20236;-87
2022/06/05 15:25:18;;;;;;;1.02;0.90;;;23.90;1.00;;;;;;10416272;28;20200;-83
2022/06/05 15:31:00;;;;;;;1.10;0.90;;;23.90;1.00;;;;;;10428287;28;20279;-92
2022/06/05 15:36:27;;;;;;;0.90;0.90;;;23.80;1.00;;;;;;10431607;28;20208;-86
2022/06/05 15:42:03;;;;;;;1.90;1.15;;;23.60;1.00;;;;;;10447296;28;20192;-88
2022/06/05 15:47:30;;;;;;;1.27;1.17;;;23.50;1.00;;;;;;10433771;28;20193;-86
2022/06/05 15:52:57;;;;;;;1.50;1.23;;;23.20;1.00;;;;;;10448229;28;20234;-80
2022/06/05 15:58:25;;;;;;;1.27;1.17;;;23.10;1.00;;;;;;10433869;28;20243;-85
2022/06/05 16:03:58;;;;;;;1.33;1.20;;;23.00;1.00;;;;;;10431450;28;20192;-90
2022/06/05 16:09:38;;;;;;;3.35;1.17;;;23.00;1.00;;;;;;10431210;28;20205;-86
2022/06/05 16:15:05;;;;;;;1.63;1.30;;;22.90;1.00;;;;;;10426278;28;20202;-88
2022/06/05 16:20:42;;;;;;;2.03;1.60;;;22.80;1.00;;;;;;10426289;28;20295;-88
2022/06/05 16:26:46;;;;;;;2.00;1.50;;;22.80;1.00;;;;;;10417658;28;20271;-88
2022/06/05 16:32:37;;;;;;;1.90;1.42;;;22.70;91.60;;;;;;10427808;28;20205;-85
2022/06/05 16:37:59;;;;;;;3.00;1.45;;;22.60;38.10;;;;;;10429657;28;20232;-81
2022/06/05 16:43:22;;;;;;;2.67;2.10;;;22.60;99.90;;;;;;10428006;28;20200;-91
2022/06/05 16:48:56;;;;;;;4.32;2.10;;;22.40;99.90;;;;;;10439641;28;20223;-95
2022/06/05 16:54:38;;;;;;;2.17;1.60;;;22.30;99.90;;;;;;10427459;28;20304;-82
2022/06/05 17:06:34;;;;;;;4.53;1.73;;;22.10;99.90;;;;;;10441811;28;20492;-90
2022/06/05 17:12:52;;;;;;;1.60;1.50;;;22.00;1.00;;;;;;10420917;28;20192;-80
2022/06/05 17:18:22;;;;;;;3.88;1.45;;;22.00;1.00;;;;;;10464229;28;20235;-83
2022/06/05 17:24:18;;;;;;;1.52;1.33;;;21.90;1.00;;;;;;10445595;28;20200;-85
2022/06/05 17:29:50;;;;;;;2.60;1.67;;;21.60;1.00;;;;;;10467929;28;20207;-88
2022/06/05 17:35:30;;;;;;;2.20;1.63;;;21.70;1.00;;;;;;10462756;28;20228;-92
2022/06/05 17:41:10;;;;;;;2.10;1.90;;;21.50;1.00;;;;;;10445606;28;20260;-93
2022/06/05 17:47:13;;;;;;;3.88;1.70;;;21.40;1.00;;;;;;10466886;28;20196;-91
2022/06/05 17:53:12;;;;;;;4.45;2.45;;;21.10;1.00;;;;;;10453623;28;20553;-94
2022/06/05 17:58:35;;;;;;;4.38;1.88;;;21.00;1.00;;;;;;10426208;28;20220;-85
2022/06/05 18:04:02;;;;;;;2.63;1.90;;;20.80;1.00;;;;;;10450084;28;20192;-87
2022/06/05 18:09:31;;;;;;;2.63;2.03;;;20.70;77.60;;;;;;10423286;28;20192;-96
2022/06/05 18:14:57;;;;;;;1.60;1.45;;;20.70;1.00;;;;;;10446553;28;20570;-94
2022/06/05 18:20:22;;;;;;;1.58;1.48;;;20.60;1.00;;;;;;10417465;28;20533;-89
2022/06/05 18:25:48;;;;;;;1.90;1.60;;;20.50;1.00;;;;;;10450260;28;20196;-91
2022/06/05 18:31:40;;;;;;;3.60;2.08;;;20.40;1.00;;;;;;10447323;28;20200;-81
2022/06/05 18:43:03;;;;;;;2.72;1.88;;;19.90;21.30;;;;;;10435801;28;20205;-94
2022/06/05 18:48:27;;;;;;;3.85;2.40;;;19.70;99.90;;;;;;10421695;28;20220;-94
2022/06/05 18:53:55;;;;;;;3.88;2.67;;;19.60;1.00;;;;;;10430782;28;20239;-89
2022/06/05 18:59:25;;;;;;;3.00;2.30;;;19.50;1.00;;;;;;10411398;28;20237;-89
2022/06/05 19:04:53;;;;;;;4.22;2.33;;;19.50;1.00;;;;;;10454686;28;20223;-93
2022/06/05 19:10:17;;;;;;;3.92;2.47;;;19.40;99.90;;;;;;10433332;28;20203;-91
2022/06/05 19:15:45;;;;;;;3.25;2.03;;;19.30;1.00;;;;;;10415611;28;20336;-85
2022/06/05 19:21:14;;;;;;;2.83;2.15;;;19.10;1.00;;;;;;10442653;28;20220;-86
2022/06/05 19:26:39;;;;;;;4.55;2.22;;;19.00;1.00;;;;;;10413260;28;20203;-95
2022/06/05 19:32:05;;;;;;;2.50;2.30;;;18.80;1.00;;;;;;10413241;28;20254;-95
2022/06/05 19:38:10;;;;;;;2.70;2.33;;;18.70;89.50;;;;;;10430828;28;20239;-91
2022/06/05 19:43:37;;;;;;;2.70;2.10;;;18.60;99.90;;;;;;10448760;28;20231;-85
2022/06/05 19:49:26;;;;;;;2.20;1.92;;;18.50;99.90;;;;;;10430035;28;20200;-91
2022/06/05 19:54:48;;;;;;;3.42;2.30;;;18.40;1.00;;;;;;10445167;28;20266;-94
2022/06/05 20:00:13;;;;;;;4.53;2.10;;;18.30;99.90;;;;;;10423707;28;20228;-87
2022/06/05 20:05:38;;;;;;;3.08;2.40;;;18.10;34.90;;;;;;10444326;28;20185;-90
2022/06/05 20:11:07;;;;;;;2.78;2.38;;;18.00;99.90;;;;;;10420720;28;20197;-88
2022/06/05 20:22:35;;;;;;;5.18;3.08;;;;;;;;;;10425239;28;20430;-83
2022/06/05 20:28:01;;;;;;;6.80;3.50;;;17.50;1.00;;;;;;10423859;28;20545;-90
2022/06/05 20:33:28;;;;;;;6.05;3.67;;;17.50;99.90;;;;;;10411336;28;20227;-95
2022/06/05 20:38:51;;;;;;;5.35;3.20;;;17.30;99.90;;;;;;10445928;28;20230;-81
2022/06/05 20:44:22;;;;;;;4.68;2.90;;;17.10;1.00;;;;;;10456628;28;20203;-83
2022/06/05 20:55:44;;;;;;;5.25;2.83;;;17.00;99.90;;;;;;10436088;28;20255;-85
2022/06/05 21:01:13;;;;;;;3.88;2.50;;;16.80;99.90;;;;;;10429536;28;20227;-81
2022/06/05 21:20:24;;;;;;;3.88;3.17;;;16.50;1.00;;;;;;10352589;28;20238;-92
2022/06/05 21:25:48;;;;;;;5.78;3.85;;;16.40;1.00;;;;;;10336399;28;20284;-93
2022/06/05 21:31:35;;;;;;;4.05;3.22;;;16.50;1.00;;;;;;10364959;28;20246;-84
2022/06/05 21:36:58;;;;;;;5.43;3.70;;;16.50;1.00;;;;;;10353038;28;20275;-87
2022/06/05 21:42:22;;;;;;;4.95;3.63;;;16.40;1.00;;;;;;10334949;28;20204;-93
2022/06/05 21:47:46;;;;;;;4.13;3.45;;;16.30;1.00;;;;;;10352135;28;20288;-93
2022/06/05 21:53:10;;;;;;;4.85;3.95;;;16.30;1.00;;;;;;10348718;28;20286;-87
2022/06/05 21:58:32;;;;;;;4.80;3.47;;;16.30;1.00;;;;;;10431261;28;20227;-85
2022/06/05 22:03:54;;;;;;;4.70;3.25;;;16.20;1.00;;;;;;10431653;28;20510;-90
2022/06/05 22:09:15;;;;;;;4.63;3.28;;;16.20;1.00;;;;;;10441371;28;20494;-84
2022/06/05 22:14:36;;;;;;;3.92;3.25;;;16.10;1.00;;;;;;10414300;28;20492;-92
2022/06/05 22:19:57;;;;;;;5.57;3.88;;;16.10;1.00;;;;;;10426693;28;20280;-89
2022/06/05 22:25:19;;;;;;;4.80;3.42;;;16.00;1.00;;;;;;10430585;28;20203;-87
2022/06/05 22:30:44;;;;;;;7.10;3.60;;;15.90;1.00;;;;;;10427201;28;20282;-94
2022/06/05 22:36:06;;;;;;;3.83;3.10;;;15.90;1.00;;;;;;10416414;28;20394;-93
2022/06/05 22:41:27;;;;;;;4.22;3.47;;;15.90;1.00;;;;;;10444659;28;20218;-91
2022/06/05 22:46:49;;;;;;;3.40;3.10;;;15.90;1.00;;;;;;10427387;28;20190;-93
2022/06/05 22:52:10;;;;;;;5.32;3.78;;;15.90;1.00;;;;;;10451586;28;20225;-83
2022/06/05 22:57:32;;;;;;;4.72;3.33;;;15.80;1.00;;;;;;10416905;28;20326;-90
2022/06/05 23:02:53;;;;;;;4.72;3.53;;;15.80;1.00;;;;;;10429296;28;20370;-96
2022/06/05 23:08:15;;;;;;;3.88;3.22;;;15.70;1.00;;;;;;10430005;28;20195;-82
2022/06/05 23:13:36;;;;;;;4.82;3.67;;;15.70;1.00;;;;;;10416049;28;20236;-92
2022/06/05 23:24:40;;;;;;;5.95;3.28;;;15.60;1.00;;;;;;10440308;28;20228;-87
2022/06/05 23:30:02;;;;;;;4.18;3.05;;;15.60;1.00;;;;;;10415257;28;20286;-92
2022/06/05 23:35:23;;;;;;;4.03;3.42;;;15.50;1.00;;;;;;10415381;28;20203;-94
2022/06/05 23:40:45;;;;;;;3.50;3.20;;;15.50;1.00;;;;;;10442096;28;20305;-83
2022/06/05 23:46:15;;;;;;;4.07;3.50;;;15.50;1.00;;;;;;10439059;28;20238;-90
2022/06/05 23:51:37;;;;;;;3.75;3.17;;;15.50;5.10;;;;;;10429550;28;20289;-96
